createdAt,value
2018-11-04T00:00:15.244Z,14.03
2018-11-04T00:02:44.027Z,14.73
2018-11-04T00:05:12.923Z,12.13
2018-11-04T00:07:41.628Z,13.37
2018-11-04T00:10:11.520Z,13.20
2018-11-04T00:12:40.478Z,11.90
2018-11-04T00:15:10.419Z,13.00
2018-11-04T00:17:39.536Z,12.50
2018-11-04T00:20:10.359Z,12.50
2018-11-04T00:22:39.192Z,10.77
2018-11-04T00:25:09.363Z,13.90
2018-11-04T00:27:38.091Z,13.53
2018-11-04T00:30:08.359Z,11.80
2018-11-04T00:32:37.057Z,13.63
2018-11-04T00:35:06.251Z,14.07
2018-11-04T00:37:34.954Z,13.10
2018-11-04T00:40:03.645Z,12.23
2018-11-04T00:42:32.351Z,13.40
2018-11-04T00:45:01.195Z,14.70
2018-11-04T00:47:29.898Z,11.43
2018-11-04T00:49:58.606Z,13.50
2018-11-04T00:52:27.394Z,14.27
2018-11-04T00:54:56.187Z,12.82
2018-11-04T00:57:24.900Z,11.10
2018-11-04T00:59:53.588Z,13.50
2018-11-04T01:02:22.274Z,11.93
2018-11-04T01:04:50.975Z,13.27
2018-11-04T01:07:19.726Z,11.57
2018-11-04T01:09:48.430Z,12.53
2018-11-04T01:12:17.122Z,13.07
2018-11-04T01:14:45.815Z,11.73
2018-11-04T01:17:14.523Z,12.60
2018-11-04T01:19:43.214Z,13.73
2018-11-04T01:22:12.019Z,12.33
2018-11-04T01:24:40.715Z,13.43
2018-11-04T01:27:09.458Z,12.17
2018-11-04T01:29:38.143Z,12.17
2018-11-04T01:32:06.855Z,10.67
2018-11-04T01:34:35.546Z,12.23
2018-11-04T01:37:04.249Z,11.30
2018-11-04T01:39:33.164Z,10.43
2018-11-04T01:42:01.884Z,11.93
2018-11-04T01:44:30.595Z,11.50
2018-11-04T01:46:59.374Z,11.27
2018-11-04T01:49:28.067Z,10.43
2018-11-04T01:51:56.786Z,10.83
2018-11-04T01:54:25.480Z,11.88
2018-11-04T01:56:54.192Z,12.07
2018-11-04T01:59:22.887Z,10.57
2018-11-04T02:01:51.602Z,11.97
2018-11-04T02:04:20.354Z,12.63
2018-11-04T02:06:49.058Z,13.20
2018-11-04T02:09:17.751Z,12.00
2018-11-04T02:11:46.445Z,12.73
2018-11-04T02:14:15.149Z,12.37
2018-11-04T02:16:43.839Z,13.90
2018-11-04T02:19:12.537Z,13.37
2018-11-04T02:21:42.141Z,10.77
2018-11-04T02:24:10.846Z,11.10
2018-11-04T02:26:39.538Z,12.93
2018-11-04T02:29:08.229Z,12.37
2018-11-04T02:31:37.048Z,13.37
2018-11-04T02:34:05.884Z,13.37
2018-11-04T02:36:34.558Z,12.33
2018-11-04T02:39:03.494Z,12.80
2018-11-04T02:41:32.177Z,13.27
2018-11-04T02:44:00.875Z,13.67
2018-11-04T02:46:30.181Z,12.63
2018-11-04T02:48:59.073Z,12.07
2018-11-04T02:51:27.781Z,12.23
2018-11-04T02:53:56.536Z,9.60
2018-11-04T02:56:25.261Z,11.73
2018-11-04T02:58:53.995Z,10.63
2018-11-04T03:01:22.701Z,11.83
2018-11-04T03:03:51.398Z,10.80
2018-11-04T03:06:20.077Z,11.73
2018-11-04T03:08:48.782Z,10.33
2018-11-04T03:11:17.469Z,10.80
2018-11-04T03:13:46.173Z,12.03
2018-11-04T03:16:14.867Z,10.47
2018-11-04T03:18:44.450Z,11.70
2018-11-04T03:21:13.140Z,11.33
2018-11-04T03:23:41.842Z,13.20
2018-11-04T03:26:10.534Z,13.00
2018-11-04T03:28:39.234Z,13.75
2018-11-04T03:31:07.930Z,13.27
2018-11-04T03:33:36.633Z,13.47
2018-11-04T03:36:05.502Z,12.47
2018-11-04T03:38:34.207Z,11.20
2018-11-04T03:41:02.946Z,13.20
2018-11-04T03:43:31.657Z,13.53
2018-11-04T03:46:00.350Z,13.43
2018-11-04T03:48:29.050Z,12.13
2018-11-04T03:50:57.743Z,13.03
2018-11-04T03:53:26.449Z,12.60
2018-11-04T03:55:55.138Z,12.93
2018-11-04T03:58:23.845Z,13.23
2018-11-04T04:00:52.537Z,12.75
2018-11-04T04:03:21.254Z,13.50
2018-11-04T04:05:49.953Z,13.10
2018-11-04T04:08:18.645Z,12.20
2018-11-04T04:10:47.341Z,12.47
2018-11-04T04:13:16.960Z,12.83
2018-11-04T04:15:45.654Z,13.67
2018-11-04T04:18:14.358Z,14.87
2018-11-04T04:20:43.051Z,14.70
2018-11-04T04:23:11.770Z,15.03
2018-11-04T04:25:40.469Z,15.03
2018-11-04T04:28:09.211Z,15.20
2018-11-04T04:30:37.953Z,14.63
2018-11-04T04:33:06.654Z,15.73
2018-11-04T04:35:35.353Z,12.90
2018-11-04T04:38:04.073Z,13.50
2018-11-04T04:40:32.773Z,13.23
2018-11-04T04:43:01.474Z,13.13
2018-11-04T04:45:30.166Z,12.03
2018-11-04T04:47:58.864Z,13.77
2018-11-04T04:50:27.561Z,12.03
2018-11-04T04:52:56.273Z,12.23
2018-11-04T04:55:25.077Z,13.23
2018-11-04T04:57:53.773Z,13.53
2018-11-04T05:00:22.462Z,12.03
2018-11-04T05:02:51.154Z,12.40
2018-11-04T05:05:19.845Z,12.87
2018-11-04T05:07:48.545Z,12.13
2018-11-04T05:10:17.253Z,13.08
2018-11-04T05:12:46.122Z,9.67
2018-11-04T05:15:14.813Z,10.70
2018-11-04T05:17:43.507Z,12.20
2018-11-04T05:20:12.349Z,11.57
2018-11-04T05:22:41.050Z,11.67
2018-11-04T05:25:09.750Z,10.50
2018-11-04T05:27:38.442Z,10.77
2018-11-04T05:30:08.998Z,11.87
2018-11-04T05:32:37.685Z,11.60
2018-11-04T05:35:06.737Z,10.70
2018-11-04T05:37:35.993Z,9.33
2018-11-04T05:40:05.681Z,12.03
2018-11-04T05:42:34.368Z,12.30
2018-11-04T05:45:03.399Z,12.73
2018-11-04T05:47:32.073Z,12.90
2018-11-04T05:50:00.776Z,10.50
2018-11-04T05:52:29.646Z,9.37
2018-11-04T05:54:58.351Z,11.10
2018-11-04T05:57:27.082Z,11.20
2018-11-04T05:59:55.782Z,10.23
2018-11-04T06:02:24.469Z,10.67
2018-11-04T06:04:53.183Z,12.73
2018-11-04T06:07:22.789Z,9.07
2018-11-04T06:09:51.938Z,11.67
2018-11-04T06:12:20.629Z,11.33
2018-11-04T06:14:49.338Z,10.70
2018-11-04T06:17:18.026Z,11.10
2018-11-04T06:19:46.717Z,11.30
2018-11-04T06:22:15.419Z,9.93
2018-11-04T06:24:44.246Z,11.23
2018-11-04T06:27:12.937Z,9.90
2018-11-04T06:29:41.650Z,10.63
2018-11-04T06:32:10.342Z,11.10
2018-11-04T06:34:39.122Z,10.17
2018-11-04T06:37:07.753Z,11.57
2018-11-04T06:39:36.485Z,11.90
2018-11-04T06:42:05.205Z,12.40
2018-11-04T06:44:33.909Z,10.58
2018-11-04T06:47:02.717Z,9.87
2018-11-04T06:49:31.354Z,11.10
2018-11-04T06:52:00.073Z,10.00
2018-11-04T06:54:28.782Z,9.67
2018-11-04T06:56:57.470Z,11.37
2018-11-04T06:59:26.181Z,11.60
2018-11-04T07:01:54.878Z,10.78
2018-11-04T07:04:24.998Z,10.50
2018-11-04T07:06:53.682Z,9.90
2018-11-04T07:09:22.481Z,9.47
2018-11-04T07:11:51.158Z,9.83
2018-11-04T07:14:20.449Z,11.40
2018-11-04T07:16:49.166Z,11.20
2018-11-04T07:19:18.009Z,9.38
2018-11-04T07:21:46.711Z,10.13
2018-11-04T07:24:15.454Z,10.23
2018-11-04T07:26:44.106Z,9.35
2018-11-04T07:29:12.841Z,12.17
2018-11-04T07:31:41.543Z,11.20
2018-11-04T07:34:10.242Z,12.03
2018-11-04T07:36:38.990Z,10.55
2018-11-04T07:39:09.341Z,12.77
2018-11-04T07:41:38.030Z,17.13
2018-11-04T07:44:06.766Z,14.47
2018-11-04T07:46:35.421Z,13.70
2018-11-04T07:49:04.137Z,13.30
2018-11-04T07:51:32.945Z,13.87
2018-11-04T07:54:01.547Z,12.35
2018-11-04T07:56:31.144Z,11.33
2018-11-04T07:58:59.872Z,18.50
2018-11-04T08:01:28.575Z,11.50
2018-11-04T08:03:57.278Z,12.27
2018-11-04T08:06:25.979Z,10.37
2018-11-04T08:08:54.669Z,10.40
2018-11-04T08:11:23.377Z,10.90
2018-11-04T08:13:52.074Z,10.87
2018-11-04T08:16:20.785Z,10.73
2018-11-04T08:18:49.474Z,12.43
2018-11-04T08:21:18.325Z,11.47
2018-11-04T08:23:47.090Z,12.23
2018-11-04T08:26:15.790Z,10.10
2018-11-04T08:28:44.485Z,11.00
2018-11-04T08:31:13.194Z,11.97
2018-11-04T08:33:41.899Z,11.00
2018-11-04T08:36:10.597Z,10.30
2018-11-04T08:38:39.290Z,10.50
2018-11-04T08:41:08.298Z,10.53
2018-11-04T08:43:37.088Z,10.63
2018-11-04T08:46:05.941Z,10.40
2018-11-04T08:48:34.877Z,10.40
2018-11-04T08:51:03.855Z,10.20
2018-11-04T08:53:32.632Z,9.90
2018-11-04T08:56:01.333Z,10.77
2018-11-04T08:58:30.014Z,10.77
2018-11-04T09:00:58.722Z,10.50
2018-11-04T09:03:27.414Z,9.23
2018-11-04T09:05:56.160Z,9.27
2018-11-04T09:08:24.848Z,9.57
2018-11-04T09:10:53.561Z,10.03
2018-11-04T09:13:22.258Z,9.63
2018-11-04T09:15:51.090Z,9.37
2018-11-04T09:18:19.838Z,10.03
2018-11-04T09:20:48.617Z,9.40
2018-11-04T09:23:17.322Z,10.37
2018-11-04T09:25:46.022Z,10.60
2018-11-04T09:28:14.722Z,10.27
2018-11-04T09:30:43.421Z,10.93
2018-11-04T09:33:12.122Z,9.58
2018-11-04T09:35:40.979Z,11.93
2018-11-04T09:38:09.531Z,11.53
2018-11-04T09:40:38.235Z,10.48
2018-11-04T09:43:06.913Z,9.93
2018-11-04T09:45:35.819Z,9.77
2018-11-04T09:48:04.949Z,10.37
2018-11-04T09:50:33.649Z,9.73
2018-11-04T09:53:02.349Z,9.17
2018-11-04T09:55:31.037Z,9.30
2018-11-04T09:57:59.729Z,10.50
2018-11-04T10:00:28.441Z,11.33
2018-11-04T10:02:57.186Z,11.30
2018-11-04T10:05:25.886Z,9.43
2018-11-04T10:07:54.573Z,9.10
2018-11-04T10:10:23.269Z,10.30
2018-11-04T10:12:51.962Z,10.07
2018-11-04T10:15:20.646Z,8.60
2018-11-04T10:17:49.325Z,9.63
2018-11-04T10:20:18.336Z,25.72
2018-11-04T10:22:46.732Z,11.50
2018-11-04T10:25:15.450Z,10.43
2018-11-04T10:27:44.149Z,10.43
2018-11-04T10:30:14.114Z,10.33
2018-11-04T10:32:42.821Z,10.80
2018-11-04T10:35:11.769Z,11.38
2018-11-04T10:37:41.298Z,9.90
2018-11-04T10:40:11.086Z,11.30
2018-11-04T10:42:39.797Z,10.20
2018-11-04T10:45:09.486Z,9.03
2018-11-04T10:47:38.279Z,10.30
2018-11-04T10:50:09.357Z,13.83
2018-11-04T10:52:38.200Z,11.97
2018-11-04T10:55:07.703Z,11.70
2018-11-04T10:57:36.436Z,10.87
2018-11-04T11:00:11.706Z,10.00
2018-11-04T11:02:40.481Z,10.33
2018-11-04T11:05:09.183Z,9.43
2018-11-04T11:07:37.873Z,10.40
2018-11-04T11:10:07.817Z,11.27
2018-11-04T11:12:36.902Z,10.20
2018-11-04T11:15:06.430Z,8.73
2018-11-04T11:17:36.046Z,10.30
2018-11-04T11:20:06.058Z,9.83
2018-11-04T11:22:34.829Z,13.17
2018-11-04T11:25:03.461Z,22.53
2018-11-04T11:27:32.222Z,12.73
2018-11-04T11:30:01.124Z,15.40
2018-11-04T11:32:29.770Z,18.52
2018-11-04T11:34:58.481Z,9.23
2018-11-04T11:37:27.255Z,10.40
2018-11-04T11:39:55.906Z,9.88
2018-11-04T11:42:24.634Z,8.37
2018-11-04T11:44:54.156Z,9.77
2018-11-04T11:47:22.798Z,10.33
2018-11-04T11:49:51.605Z,8.70
2018-11-04T11:52:20.313Z,8.93
2018-11-04T11:54:49.023Z,9.63
2018-11-04T11:57:17.825Z,8.60
2018-11-04T11:59:46.533Z,9.43
2018-11-04T12:02:15.363Z,15.10
2018-11-04T12:04:43.967Z,11.47
2018-11-04T12:07:12.682Z,8.40
2018-11-04T12:09:41.369Z,8.53
2018-11-04T12:12:10.077Z,9.47
2018-11-04T12:14:38.763Z,8.33
2018-11-04T12:17:07.458Z,9.07
2018-11-04T12:19:36.139Z,9.40
2018-11-04T12:22:05.056Z,10.00
2018-11-04T12:24:33.743Z,9.93
2018-11-04T12:27:02.554Z,9.87
2018-11-04T12:29:31.241Z,10.00
2018-11-04T12:31:59.942Z,9.87
2018-11-04T12:34:28.634Z,11.63
2018-11-04T12:36:57.330Z,8.70
2018-11-04T12:39:26.030Z,8.60
2018-11-04T12:41:54.724Z,8.27
2018-11-04T12:44:24.065Z,7.60
2018-11-04T12:46:52.773Z,7.37
2018-11-04T12:49:21.474Z,7.87
2018-11-04T12:51:50.168Z,8.30
2018-11-04T12:54:18.927Z,7.97
2018-11-04T12:56:47.630Z,7.50
2018-11-04T12:59:16.309Z,7.97
2018-11-04T13:01:45.210Z,8.70
2018-11-04T13:04:13.852Z,8.33
2018-11-04T13:06:42.543Z,8.07
2018-11-04T13:09:11.639Z,8.23
2018-11-04T13:11:40.474Z,8.40
2018-11-04T13:14:09.601Z,8.87
2018-11-04T13:16:38.310Z,8.80
2018-11-04T13:19:07.038Z,9.37
2018-11-04T13:21:35.837Z,9.07
2018-11-04T13:24:04.621Z,9.00
2018-11-04T13:26:33.437Z,9.20
2018-11-04T13:29:02.343Z,9.13
2018-11-04T13:31:31.030Z,9.90
2018-11-04T13:33:59.726Z,9.45
2018-11-04T13:36:28.429Z,9.77
2018-11-04T13:38:57.126Z,9.43
2018-11-04T13:41:25.842Z,8.80
2018-11-04T13:43:54.541Z,9.83
2018-11-04T13:46:23.231Z,10.30
2018-11-04T13:48:51.926Z,10.37
2018-11-04T13:51:20.610Z,9.63
2018-11-04T13:53:49.322Z,11.00
2018-11-04T13:56:20.721Z,9.97
2018-11-04T13:58:50.341Z,10.87
2018-11-04T14:01:19.321Z,11.97
2018-11-04T14:03:48.030Z,11.77
2018-11-04T14:06:16.762Z,11.80
2018-11-04T14:08:45.465Z,13.20
2018-11-04T14:11:14.273Z,12.47
2018-11-04T14:13:42.969Z,11.97
2018-11-04T14:16:11.850Z,12.30
2018-11-04T14:18:40.541Z,11.67
2018-11-04T14:21:09.236Z,11.13
2018-11-04T14:23:37.949Z,11.87
2018-11-04T14:26:06.649Z,13.50
2018-11-04T14:28:35.766Z,12.70
2018-11-04T14:31:04.857Z,12.47
2018-11-04T14:33:33.587Z,12.73
2018-11-04T14:36:02.286Z,13.43
2018-11-04T14:38:30.997Z,13.23
2018-11-04T14:40:59.707Z,13.47
2018-11-04T14:43:28.418Z,13.63
2018-11-04T14:45:57.125Z,14.13
2018-11-04T14:48:25.821Z,14.23
2018-11-04T14:50:54.537Z,13.90
2018-11-04T14:53:23.398Z,14.03
2018-11-04T14:55:52.115Z,14.95
2018-11-04T14:58:20.825Z,15.17
2018-11-04T15:00:49.575Z,14.13
2018-11-04T15:03:18.239Z,14.93
2018-11-04T15:05:46.945Z,15.03
2018-11-04T15:08:15.662Z,15.50
2018-11-04T15:10:44.353Z,14.87
2018-11-04T15:13:13.064Z,15.53
2018-11-04T15:15:41.758Z,14.13
2018-11-04T15:18:10.465Z,14.90
2018-11-04T15:20:40.091Z,14.93
2018-11-04T15:23:08.798Z,14.10
2018-11-04T15:25:37.501Z,14.97
2018-11-04T15:28:06.222Z,16.03
2018-11-04T15:30:34.969Z,15.73
2018-11-04T15:33:03.681Z,15.20
2018-11-04T15:35:32.390Z,18.50
2018-11-04T15:38:01.158Z,30.57
2018-11-04T15:40:29.902Z,32.70
2018-11-04T15:42:58.563Z,22.27
2018-11-04T15:45:27.264Z,30.30
2018-11-04T15:47:55.977Z,28.47
2018-11-04T15:50:24.686Z,24.77
2018-11-04T15:52:53.501Z,34.63
2018-11-04T15:55:22.193Z,36.13
2018-11-04T15:57:50.881Z,24.67
2018-11-04T16:00:19.625Z,21.90
2018-11-04T16:02:48.358Z,17.97
2018-11-04T16:05:17.057Z,17.37
2018-11-04T16:07:45.952Z,72.93
2018-11-04T16:10:14.658Z,19.42
2018-11-04T16:12:43.438Z,16.90
2018-11-04T16:15:13.525Z,47.10
2018-11-04T16:17:42.723Z,18.80
2018-11-04T16:20:12.746Z,18.17
2018-11-04T16:22:41.947Z,20.10
2018-11-04T16:25:11.437Z,18.17
2018-11-04T16:27:40.629Z,18.87
2018-11-04T16:30:10.445Z,17.90
2018-11-04T16:32:39.257Z,18.33
2018-11-04T16:35:09.560Z,17.87
2018-11-04T16:37:38.547Z,18.70
2018-11-04T16:40:07.951Z,18.33
2018-11-04T16:42:36.738Z,19.53
2018-11-04T16:45:08.217Z,18.52
2018-11-04T16:47:37.277Z,18.87
2018-11-04T16:50:07.556Z,17.40
2018-11-04T16:52:36.146Z,17.60
2018-11-04T16:55:05.822Z,18.75
2018-11-04T16:57:34.529Z,17.63
2018-11-04T17:00:03.230Z,19.80
2018-11-04T17:02:31.924Z,21.07
2018-11-04T17:05:00.648Z,20.50
2018-11-04T17:07:30.258Z,18.70
2018-11-04T17:09:58.974Z,17.83
2018-11-04T17:12:27.745Z,17.50
2018-11-04T17:14:56.445Z,17.77
2018-11-04T17:17:25.131Z,16.33
2018-11-04T17:19:53.829Z,18.03
2018-11-04T17:22:22.516Z,15.83
2018-11-04T17:24:52.125Z,17.02
2018-11-04T17:27:20.818Z,14.13
2018-11-04T17:29:49.509Z,14.93
2018-11-04T17:32:18.197Z,16.10
2018-11-04T17:34:46.929Z,13.60
2018-11-04T17:37:15.617Z,14.57
2018-11-04T17:39:44.305Z,15.37
2018-11-04T17:42:12.989Z,15.13
2018-11-04T17:44:41.812Z,15.07
2018-11-04T17:47:10.379Z,16.00
2018-11-04T17:49:39.177Z,15.77
2018-11-04T17:52:07.877Z,16.23
2018-11-04T17:54:36.588Z,16.23
2018-11-04T17:57:05.429Z,16.07
2018-11-04T17:59:34.109Z,18.13
2018-11-04T18:02:02.846Z,17.23
2018-11-04T18:04:31.590Z,14.80
2018-11-04T18:07:00.323Z,17.23
2018-11-04T18:09:29.001Z,21.27
2018-11-04T18:11:57.691Z,20.87
2018-11-04T18:14:26.393Z,24.03
2018-11-04T18:16:55.077Z,23.90
2018-11-04T18:19:23.769Z,21.47
2018-11-04T18:21:52.466Z,20.97
2018-11-04T18:24:21.162Z,17.67
2018-11-04T18:26:49.967Z,18.83
2018-11-04T18:29:18.629Z,20.37
2018-11-04T18:31:47.362Z,15.53
2018-11-04T18:34:16.045Z,17.17
2018-11-04T18:36:44.750Z,15.33
2018-11-04T18:39:13.549Z,16.60
2018-11-04T18:41:42.259Z,15.10
2018-11-04T18:44:11.048Z,19.47
2018-11-04T18:46:39.693Z,22.43
2018-11-04T18:49:08.505Z,17.03
2018-11-04T18:51:37.195Z,21.20
2018-11-04T18:54:06.042Z,21.60
2018-11-04T18:56:34.772Z,20.80
2018-11-04T18:59:03.474Z,19.07
2018-11-04T19:01:32.170Z,17.77
2018-11-04T19:04:00.903Z,17.57
2018-11-04T19:06:29.603Z,16.63
2018-11-04T19:08:58.289Z,15.60
2018-11-04T19:11:27.062Z,18.03
2018-11-04T19:13:55.699Z,19.40
2018-11-04T19:16:24.402Z,15.57
2018-11-04T19:18:53.210Z,14.40
2018-11-04T19:21:21.877Z,15.60
2018-11-04T19:23:50.611Z,15.80
2018-11-04T19:26:19.309Z,14.60
2018-11-04T19:28:48.009Z,15.17
2018-11-04T19:31:16.814Z,14.97
2018-11-04T19:33:45.445Z,15.32
2018-11-04T19:36:14.144Z,16.23
2018-11-04T19:38:43.087Z,16.70
2018-11-04T19:41:11.779Z,16.17
2018-11-04T19:43:40.574Z,16.47
2018-11-04T19:46:09.277Z,16.50
2018-11-04T19:48:38.074Z,16.50
2018-11-04T19:51:06.914Z,17.73
2018-11-04T19:53:35.533Z,13.60
2018-11-04T19:56:05.237Z,17.63
2018-11-04T19:58:34.024Z,15.93
2018-11-04T20:01:02.709Z,18.93
2018-11-04T20:03:31.451Z,15.23
2018-11-04T20:06:00.227Z,18.83
2018-11-04T20:08:28.881Z,17.77
2018-11-04T20:10:57.590Z,15.20
2018-11-04T20:14:30.492Z,17.70
2018-11-04T20:16:59.190Z,16.27
2018-11-04T20:19:33.571Z,16.90
2018-11-04T20:22:02.247Z,15.77
2018-11-04T20:24:36.493Z,16.37
2018-11-04T20:27:05.369Z,16.63
2018-11-04T20:29:34.083Z,15.20
2018-11-04T20:32:08.273Z,17.93
2018-11-04T20:34:36.965Z,15.73
2018-11-04T20:37:05.707Z,16.47
2018-11-04T20:39:39.888Z,15.83
2018-11-04T20:42:08.590Z,15.67
2018-11-04T20:44:42.779Z,14.23
2018-11-04T20:47:11.823Z,15.27
2018-11-04T20:49:46.253Z,14.83
2018-11-04T20:52:15.285Z,15.83
2018-11-04T20:54:43.986Z,18.27
2018-11-04T20:57:18.265Z,16.37
2018-11-04T20:59:46.937Z,15.23
2018-11-04T21:02:15.735Z,16.17
2018-11-04T21:04:44.342Z,15.50
2018-11-04T21:07:13.034Z,15.43
2018-11-04T21:09:41.811Z,14.20
2018-11-04T21:12:10.446Z,14.63
2018-11-04T21:14:39.135Z,14.83
2018-11-04T21:17:08.742Z,16.87
2018-11-04T21:19:37.443Z,16.10
2018-11-04T21:22:10.685Z,14.47
2018-11-04T21:24:40.063Z,15.87
2018-11-04T21:27:08.859Z,15.65
2018-11-04T21:29:38.538Z,17.47
2018-11-04T21:32:07.041Z,17.87
2018-11-04T21:34:35.809Z,17.37
2018-11-04T21:37:05.235Z,17.83
2018-11-04T21:39:40.704Z,18.50
2018-11-04T21:42:09.393Z,17.83
2018-11-04T21:44:38.919Z,16.43
2018-11-04T21:47:07.462Z,19.03
2018-11-04T21:49:36.146Z,18.83
2018-11-04T21:52:05.213Z,18.23
2018-11-04T21:54:33.785Z,16.40
2018-11-04T21:57:02.410Z,18.97
2018-11-04T21:59:31.101Z,20.27
2018-11-04T22:01:59.961Z,20.10
2018-11-04T22:04:28.651Z,19.17
2018-11-04T22:06:57.345Z,20.33
2018-11-04T22:09:26.031Z,18.62
2018-11-04T22:11:54.722Z,18.53
2018-11-04T22:14:23.414Z,20.43
2018-11-04T22:16:51.936Z,20.27
2018-11-04T22:19:20.341Z,18.87
2018-11-04T22:21:48.751Z,18.43
2018-11-04T22:24:17.337Z,18.80
2018-11-04T22:26:46.042Z,17.90
2018-11-04T22:29:14.722Z,18.60
2018-11-04T22:31:43.418Z,18.82
2018-11-04T22:34:13.021Z,18.55
2018-11-04T22:36:41.830Z,21.93
2018-11-04T22:39:10.410Z,19.50
2018-11-04T22:41:39.101Z,18.53
2018-11-04T22:44:07.785Z,19.80
2018-11-04T22:46:36.477Z,22.20
2018-11-04T22:49:05.182Z,19.97
2018-11-04T22:51:33.882Z,19.67
2018-11-04T22:54:02.573Z,21.70
2018-11-04T22:56:31.301Z,19.73
2018-11-04T22:59:00.088Z,17.27
2018-11-04T23:01:28.794Z,17.90
2018-11-04T23:03:57.574Z,18.02
2018-11-04T23:06:27.297Z,17.77
2018-11-04T23:08:56.925Z,17.97
2018-11-04T23:11:25.709Z,18.77
2018-11-04T23:13:54.402Z,17.57
2018-11-04T23:16:23.182Z,21.27
2018-11-04T23:18:51.886Z,21.03
2018-11-04T23:21:20.664Z,18.80
2018-11-04T23:23:49.357Z,19.70
2018-11-04T23:26:18.052Z,18.43
2018-11-04T23:28:46.741Z,18.47
2018-11-04T23:31:15.426Z,16.67
2018-11-04T23:33:45.046Z,16.43
2018-11-04T23:36:13.733Z,18.33
2018-11-04T23:38:42.573Z,20.40
2018-11-04T23:41:11.366Z,15.77
2018-11-04T23:43:40.094Z,16.30
2018-11-04T23:46:08.754Z,14.90
2018-11-04T23:48:37.450Z,15.00
2018-11-04T23:51:06.129Z,14.70
2018-11-04T23:53:34.829Z,14.83
2018-11-04T23:56:03.514Z,12.73
2018-11-04T23:58:32.206Z,14.27
